Time;durP1;ratioP1;P1;durP2;ratioP2;P2;SDS_P1;SDS_P2;PMS_P1;PMS_P2;Temp;Humidity;BMP_temperature;BMP_pressure;BME280_temperature;BME280_humidity;BME280_pressure;Samples;Min_cycle;Max_cycle;Signal;HPM_P1;HPM_P2
2022/08/26 00:00:13;;;;;;;13.43;5.57;;;;;;;20.60;100.00;157697.53;4997371;28;20044;-76
2022/08/26 00:02:39;;;;;;;14.77;6.18;;;;;;;20.52;100.00;157676.88;4989385;28;20039;-79
2022/08/26 00:05:05;;;;;;;14.32;5.95;;;;;;;20.56;100.00;157687.19;4970030;28;20019;-79
2022/08/26 00:07:30;;;;;;;17.10;5.90;;;;;;;20.55;100.00;157683.31;4991140;28;20116;-78
2022/08/26 00:09:56;;;;;;;13.27;6.07;;;;;;;20.54;100.00;157682.03;4957603;28;20031;-77
2022/08/26 00:12:21;;;;;;;15.38;6.38;;;;;;;20.54;100.00;157682.03;4957120;28;20145;-79
2022/08/26 00:14:47;;;;;;;12.75;5.78;;;;;;;20.48;100.00;157666.56;4956124;28;20063;-78
2022/08/26 00:17:13;;;;;;;13.10;5.80;;;;;;;20.46;100.00;157660.13;4974806;28;20031;-81
2022/08/26 00:19:39;;;;;;;16.85;6.07;;;;;;;20.48;100.00;157666.56;4985646;28;20039;-76
2022/08/26 00:22:05;;;;;;;11.82;6.20;;;;;;;20.45;100.00;157657.50;4971157;28;20077;-79
2022/08/26 00:24:30;;;;;;;17.27;6.45;;;;;;;20.36;100.00;157635.56;4988316;28;20516;-80
2022/08/26 00:26:55;;;;;;;16.25;6.38;;;;;;;20.32;100.00;157625.25;4956854;28;20035;-79
2022/08/26 00:29:21;;;;;;;15.32;6.25;;;;;;;20.23;100.00;157604.63;4966592;28;20500;-81
2022/08/26 00:31:47;;;;;;;21.48;6.72;;;;;;;20.27;100.00;157613.66;4972980;28;20034;-79
2022/08/26 00:34:13;;;;;;;17.80;6.20;;;;;;;20.24;100.00;157605.91;4970863;28;20176;-78
2022/08/26 00:36:38;;;;;;;13.80;5.63;;;;;;;20.23;100.00;157603.34;4955882;28;20141;-78
2022/08/26 00:39:06;;;;;;;18.25;6.68;;;;;;;20.16;100.00;157586.56;4955247;28;20062;-78
2022/08/26 00:41:33;;;;;;;16.42;6.47;;;;;;;20.11;100.00;157572.34;4993806;28;20054;-77
2022/08/26 00:43:58;;;;;;;17.52;6.60;;;;;;;20.05;100.00;157556.88;4990036;28;20042;-75
2022/08/26 00:46:32;;;;;;;12.40;5.78;;;;;;;20.03;100.00;157554.28;4957729;28;20062;-78
2022/08/26 00:49:12;;;;;;;14.88;6.47;;;;;;;20.06;100.00;157560.78;4982292;28;20035;-77
2022/08/26 00:51:46;;;;;;;14.60;5.97;;;;;;;20.07;100.00;157562.03;4958399;28;20069;-79
2022/08/26 00:54:12;;;;;;;13.70;6.22;;;;;;;20.06;100.00;157559.44;4954461;28;20049;-82
2022/08/26 00:56:56;;;;;;;13.90;6.10;;;;;;;20.15;100.00;157583.94;4951277;28;20849;-80
2022/08/26 00:59:23;;;;;;;13.98;6.25;;;;;;;20.13;100.00;157577.50;4984492;28;20090;-79
2022/08/26 01:01:50;;;;;;;13.38;6.57;;;;;;;20.15;100.00;157582.66;4954364;28;20124;-77
2022/08/26 01:04:19;;;;;;;15.02;6.13;;;;;;;20.14;100.00;157581.41;4967685;28;20061;-80
2022/08/26 01:06:46;;;;;;;13.20;5.75;;;;;;;20.11;100.00;157573.63;4969121;28;20070;-79
2022/08/26 01:09:12;;;;;;;18.63;6.57;;;;;;;20.04;100.00;157555.56;4956153;28;20125;-78
2022/08/26 01:11:38;;;;;;;18.20;7.15;;;;;;;19.99;100.00;157543.97;4955901;28;21528;-79
2022/08/26 01:14:05;;;;;;;17.38;6.85;;;;;;;19.96;100.00;157534.94;4971879;28;20411;-80
2022/08/26 01:16:32;;;;;;;18.05;6.78;;;;;;;19.94;100.00;157531.06;4967161;28;20031;-80
2022/08/26 01:19:04;;;;;;;15.63;6.72;;;;;;;19.91;100.00;157523.34;4970169;28;20038;-79
2022/08/26 01:21:38;;;;;;;18.63;6.75;;;;;;;19.79;100.00;157493.66;4929086;28;20029;-78
2022/08/26 01:24:08;;;;;;;16.27;6.13;;;;;;;19.79;100.00;157492.38;4942488;28;20035;-78
2022/08/26 01:26:45;;;;;;;15.02;6.60;;;;;;;19.73;100.00;157478.19;4959151;28;20563;-80
2022/08/26 01:29:18;;;;;;;16.70;6.43;;;;;;;19.62;100.00;157451.03;4945319;28;20030;-81
2022/08/26 01:31:51;;;;;;;16.10;7.22;;;;;;;19.50;100.00;157420.09;4957231;28;20509;-80
2022/08/26 01:34:21;;;;;;;13.88;6.82;;;;;;;19.45;100.00;157407.19;4971921;28;20031;-81
2022/08/26 01:36:49;;;;;;;17.50;6.40;;;;;;;19.43;100.00;157402.03;4985540;28;20054;-81
2022/08/26 01:39:15;;;;;;;12.82;7.13;;;;;;;19.38;100.00;157389.13;4952015;28;20072;-79
2022/08/26 01:41:41;;;;;;;19.15;6.90;;;;;;;19.35;100.00;157382.69;4955406;28;20035;-79
2022/08/26 01:44:15;;;;;;;14.07;6.63;;;;;;;19.29;100.00;157367.22;4955467;28;20070;-79
2022/08/26 01:46:43;;;;;;;12.48;6.15;;;;;;;19.23;100.00;157351.72;4970143;28;20126;-77
2022/08/26 01:49:09;;;;;;;14.60;6.45;;;;;;;19.22;100.00;157350.44;4972045;28;20031;-76
2022/08/26 01:51:38;;;;;;;11.98;6.50;;;;;;;19.18;100.00;157340.16;4986045;28;20069;-77
2022/08/26 01:54:07;;;;;;;16.55;6.55;;;;;;;19.13;100.00;157327.22;4970621;28;20035;-77
2022/08/26 01:56:33;;;;;;;14.15;6.97;;;;;;;19.13;100.00;157325.97;4955185;28;20039;-75
2022/08/26 01:59:03;;;;;;;15.50;6.80;;;;;;;19.06;100.00;157309.19;4972717;28;20043;-78
2022/08/26 02:01:29;;;;;;;17.35;6.95;;;;;;;18.98;100.00;157288.56;4963565;28;20061;-76
2022/08/26 02:04:00;;;;;;;11.90;6.07;;;;;;;18.97;100.00;157287.28;4991770;28;20035;-76
2022/08/26 02:06:26;;;;;;;12.75;6.93;;;;;;;18.87;100.00;157261.47;4988924;28;20043;-78
2022/08/26 02:08:55;;;;;;;16.60;7.55;;;;;;;18.82;100.00;157249.88;4988342;28;20049;-76
2022/08/26 02:11:20;;;;;;;15.25;7.22;;;;;;;18.75;100.00;157231.78;4971508;28;20062;-77
2022/08/26 02:14:20;;;;;;;15.38;7.32;;;;;;;18.75;100.00;157230.50;4969048;28;20082;-77
2022/08/26 02:16:49;;;;;;;17.08;7.25;;;;;;;18.71;100.00;157221.47;4971321;28;20035;-79
2022/08/26 02:19:19;;;;;;;14.77;6.78;;;;;;;18.62;100.00;157199.53;4955519;28;20058;-78
2022/08/26 02:21:47;;;;;;;15.90;7.40;;;;;;;18.64;100.00;157203.41;4956889;28;20035;-77
2022/08/26 02:24:17;;;;;;;14.43;7.22;;;;;;;18.61;100.00;157195.66;4942940;28;20136;-76
2022/08/26 02:26:44;;;;;;;16.42;7.53;;;;;;;18.63;100.00;157200.88;4952953;28;20748;-78
2022/08/26 02:29:33;;;;;;;19.58;7.85;;;;;;;18.60;100.00;157193.13;4971283;28;20039;-78
2022/08/26 02:31:59;;;;;;;15.82;7.43;;;;;;;18.49;100.00;157167.31;4969392;28;20110;-77
2022/08/26 02:34:31;;;;;;;15.13;7.28;;;;;;;18.54;100.00;157177.66;4971109;28;20039;-77
2022/08/26 02:36:58;;;;;;;15.45;7.88;;;;;;;18.48;100.00;157163.47;4974453;28;20027;-76
2022/08/26 02:39:24;;;;;;;12.18;7.43;;;;;;;18.43;100.00;157151.84;4953926;28;20062;-76
2022/08/26 02:41:50;;;;;;;14.07;7.15;;;;;;;18.39;100.00;157140.28;4967938;28;20077;-78
2022/08/26 02:44:16;;;;;;;16.13;7.40;;;;;;;18.39;100.00;157140.28;4971715;28;20041;-77
2022/08/26 02:46:42;;;;;;;16.05;7.93;;;;;;;18.30;100.00;157118.34;4970175;28;20038;-78
2022/08/26 02:49:07;;;;;;;13.27;7.40;;;;;;;18.27;100.00;157111.91;4970588;28;20042;-77
2022/08/26 02:51:33;;;;;;;14.63;7.38;;;;;;;18.27;100.00;157111.91;4962340;28;20114;-78
2022/08/26 02:53:58;;;;;;;19.92;8.40;;;;;;;18.27;100.00;157110.59;4972243;28;20377;-74
2022/08/26 02:56:24;;;;;;;17.35;8.00;;;;;;;18.25;100.00;157105.44;4964451;28;20551;-79
2022/08/26 02:58:50;;;;;;;16.25;7.88;;;;;;;18.23;100.00;157100.28;4968357;28;20061;-77
2022/08/26 03:01:27;;;;;;;13.13;7.47;;;;;;;18.26;100.00;157108.03;4951779;28;20035;-76
2022/08/26 03:03:53;;;;;;;13.95;7.32;;;;;;;18.22;100.00;157099.03;4971612;28;20031;-77
2022/08/26 03:06:19;;;;;;;16.33;7.95;;;;;;;18.18;100.00;157087.44;4949749;28;20054;-76
2022/08/26 03:08:45;;;;;;;19.88;8.50;;;;;;;18.18;100.00;157087.44;4982041;28;20145;-78
2022/08/26 03:11:12;;;;;;;17.48;8.30;;;;;;;18.15;100.00;157080.97;4969638;28;20157;-77
2022/08/26 03:13:38;;;;;;;15.65;8.02;;;;;;;18.08;100.00;157064.25;4983268;28;20119;-77
2022/08/26 03:16:05;;;;;;;16.58;7.75;;;;;;;18.04;100.00;157053.88;4966423;28;20073;-75
2022/08/26 03:18:30;;;;;;;13.63;7.93;;;;;;;18.00;100.00;157042.31;4967567;28;20137;-77
2022/08/26 03:20:56;;;;;;;11.90;8.30;;;;;;;17.93;100.00;157025.53;4966602;28;20109;-77
2022/08/26 03:23:22;;;;;;;12.93;8.13;;;;;;;17.92;100.00;157023.00;4968887;28;21004;-76
2022/08/26 03:25:52;;;;;;;14.60;8.00;;;;;;;17.94;100.00;157028.13;4970947;28;20035;-77
2022/08/26 03:28:18;;;;;;;14.88;8.20;;;;;;;17.98;100.00;157037.16;4991825;28;20050;-78
2022/08/26 03:30:44;;;;;;;17.08;8.18;;;;;;;18.04;100.00;157052.63;4966734;28;20477;-77
2022/08/26 03:33:12;;;;;;;13.10;7.97;;;;;;;17.96;100.00;157032.00;4958656;28;20035;-78
2022/08/26 03:35:40;;;;;;;17.98;8.30;;;;;;;17.95;100.00;157030.75;4969344;28;20062;-77
2022/08/26 03:38:07;;;;;;;16.75;8.23;;;;;;;17.93;100.00;157025.53;4956415;28;20047;-77
2022/08/26 03:40:34;;;;;;;16.83;8.35;;;;;;;17.93;100.00;157025.53;4957934;28;20387;-79
2022/08/26 03:43:00;;;;;;;22.30;9.30;;;;;;;17.81;100.00;156995.88;4974033;28;20035;-77
2022/08/26 03:45:26;;;;;;;17.75;8.88;;;;;;;17.85;100.00;157006.22;4957750;28;20070;-78
2022/08/26 03:47:52;;;;;;;16.77;8.38;;;;;;;17.86;100.00;157007.53;4974368;28;20039;-77
2022/08/26 03:50:20;;;;;;;16.75;9.15;;;;;;;17.85;100.00;157004.94;4975161;28;20030;-76
2022/08/26 03:52:46;;;;;;;15.82;8.32;;;;;;;17.80;100.00;156993.31;4975652;28;20069;-77
2022/08/26 03:55:13;;;;;;;19.88;9.27;;;;;;;17.81;100.00;156994.59;4962385;28;20072;-76
2022/08/26 03:57:40;;;;;;;15.18;8.50;;;;;;;17.78;100.00;156988.16;4988947;28;20057;-76
2022/08/26 04:00:08;;;;;;;15.90;9.00;;;;;;;17.81;100.00;156994.59;4974470;28;20287;-75
2022/08/26 04:02:34;;;;;;;15.63;9.20;;;;;;;17.77;100.00;156984.28;4975464;28;20042;-76
2022/08/26 04:05:00;;;;;;;17.35;9.25;;;;;;;17.79;100.00;156989.44;4992759;28;20011;-78
2022/08/26 04:07:25;;;;;;;18.90;9.57;;;;;;;17.75;100.00;156979.13;5008557;28;20023;-76
2022/08/26 04:09:57;;;;;;;17.65;9.00;;;;;;;17.72;100.00;156972.66;4977098;28;20030;-77
2022/08/26 04:12:24;;;;;;;17.00;8.75;;;;;;;17.73;100.00;156974.00;4978833;28;20047;-78
2022/08/26 04:14:51;;;;;;;22.25;9.40;;;;;;;17.74;100.00;156977.81;4972243;28;20058;-75
2022/08/26 04:17:18;;;;;;;16.95;9.27;;;;;;;17.74;100.00;156977.81;4994067;28;20047;-75
2022/08/26 04:19:43;;;;;;;16.65;9.05;;;;;;;17.73;100.00;156975.28;4991238;28;20050;-76
2022/08/26 04:22:09;;;;;;;17.70;9.30;;;;;;;17.75;100.00;156980.41;4980808;28;20030;-79
2022/08/26 04:24:35;;;;;;;18.23;9.93;;;;;;;17.79;100.00;156989.44;4959445;28;20039;-78
2022/08/26 04:27:02;;;;;;;22.65;10.07;;;;;;;17.76;100.00;156981.69;4980354;28;20038;-78
2022/08/26 04:29:28;;;;;;;17.25;10.18;;;;;;;17.77;100.00;156985.56;4955199;28;20713;-77
2022/08/26 04:31:55;;;;;;;18.15;9.82;;;;;;;17.78;100.00;156986.84;4939299;28;20045;-77
2022/08/26 04:34:25;;;;;;;25.25;10.30;;;;;;;17.77;100.00;156984.28;4967509;28;20035;-77
2022/08/26 04:36:51;;;;;;;22.20;9.65;;;;;;;17.75;100.00;156980.41;4967075;28;20046;-77
2022/08/26 04:39:19;;;;;;;21.23;10.30;;;;;;;17.78;100.00;156986.84;4969998;28;20027;-76
2022/08/26 04:41:45;;;;;;;19.67;10.02;;;;;;;17.79;100.00;156990.72;4969440;28;20039;-76
2022/08/26 04:44:12;;;;;;;19.70;10.32;;;;;;;17.81;100.00;156994.59;4969164;28;20066;-77
2022/08/26 04:46:38;;;;;;;18.70;10.18;;;;;;;17.84;100.00;157003.66;4951953;28;20501;-76
2022/08/26 04:49:07;;;;;;;18.98;10.73;;;;;;;17.84;100.00;157002.34;4966749;28;20673;-76
2022/08/26 04:51:37;;;;;;;22.42;10.30;;;;;;;17.95;100.00;157030.75;4977398;28;20061;-77
2022/08/26 04:54:05;;;;;;;20.45;10.30;;;;;;;17.99;100.00;157039.72;4954392;28;20106;-76
2022/08/26 04:56:34;;;;;;;22.23;9.68;;;;;;;18.02;100.00;157048.75;4984947;28;20038;-78
2022/08/26 04:59:00;;;;;;;16.77;10.18;;;;;;;18.06;100.00;157057.75;4957285;28;20043;-76
2022/08/26 05:01:26;;;;;;;20.63;10.05;;;;;;;18.15;100.00;157080.97;4942545;28;20129;-77
2022/08/26 05:03:53;;;;;;;18.30;9.50;;;;;;;18.22;100.00;157099.03;4945982;28;20121;-77
2022/08/26 05:06:19;;;;;;;18.55;9.45;;;;;;;18.33;100.00;157124.78;4966731;28;20226;-78
2022/08/26 05:08:45;;;;;;;17.75;9.52;;;;;;;18.44;100.00;157154.47;4953389;28;20525;-78
2022/08/26 05:11:11;;;;;;;18.73;9.15;;;;;;;18.51;100.00;157171.19;4953564;28;20413;-77
2022/08/26 05:13:38;;;;;;;20.92;9.95;;;;;;;18.57;100.00;157186.69;4968113;28;20035;-78
2022/08/26 05:16:06;;;;;;;19.77;9.20;;;;;;;18.71;100.00;157220.19;4953865;28;20408;-77
2022/08/26 05:18:32;;;;;;;21.95;10.02;;;;;;;18.73;100.00;157225.34;4949527;28;20129;-75
2022/08/26 05:21:01;;;;;;;14.93;9.27;;;;;;;18.76;100.00;157234.38;4959920;28;20034;-77
2022/08/26 05:23:27;;;;;;;25.08;9.57;;;;;;;18.81;100.00;157247.28;4969797;28;20049;-78
2022/08/26 05:25:54;;;;;;;17.75;9.05;;;;;;;18.82;100.00;157249.88;4952415;28;20137;-77
2022/08/26 05:28:20;;;;;;;20.00;9.82;;;;;;;18.90;100.00;157267.94;4957550;28;20132;-78
2022/08/26 05:30:47;;;;;;;17.83;9.43;;;;;;;18.92;100.00;157274.38;4965059;28;20094;-78
2022/08/26 05:33:14;;;;;;;18.52;9.18;;;;;;;19.01;100.00;157296.31;4951727;28;20070;-79
2022/08/26 05:35:41;;;;;;;22.27;9.27;;;;;;;19.15;100.00;157331.13;4976109;28;20039;-77
2022/08/26 05:38:11;;;;;;;21.05;9.32;;;;;;;19.24;100.00;157354.31;4963924;28;20120;-76
2022/08/26 05:40:40;;;;;;;20.52;9.48;;;;;;;19.40;100.00;157394.28;4966510;28;20091;-76
2022/08/26 05:43:09;;;;;;;19.80;10.35;;;;;;;19.41;100.00;157398.16;4966160;28;20027;-79
2022/08/26 05:45:41;;;;;;;18.55;11.18;;;;;;;19.43;100.00;157402.03;4950379;28;20034;-78
2022/08/26 05:48:07;;;;;;;17.88;10.13;;;;;;;19.48;100.00;157413.63;4939930;28;20089;-79
2022/08/26 05:50:44;;;;;;;21.30;10.02;;;;;;;19.64;100.00;157456.19;4949721;28;20494;-78
2022/08/26 05:53:12;;;;;;;21.63;9.93;;;;;;;19.71;100.00;157472.97;4966283;28;20035;-78
2022/08/26 05:55:43;;;;;;;25.98;10.68;;;;;;;19.73;100.00;157478.19;4965301;28;20038;-79
2022/08/26 05:58:09;;;;;;;21.05;9.82;;;;;;;19.78;100.00;157489.81;4980743;28;20097;-78
2022/08/26 06:00:35;;;;;;;18.00;9.60;;;;;;;19.88;100.00;157515.59;4952029;28;20047;-80
2022/08/26 06:03:00;;;;;;;18.95;9.25;;;;;;;19.97;100.00;157538.81;4951684;28;20035;-78
2022/08/26 06:05:26;;;;;;;20.17;9.45;;;;;;;20.02;100.00;157550.41;4954505;28;20049;-78
2022/08/26 06:08:10;;;;;;;19.27;8.95;;;;;;;20.14;100.00;157580.13;4954038;28;20046;-77
2022/08/26 06:11:01;;;;;;;22.65;9.13;;;;;;;20.23;100.00;157604.63;4970573;28;20044;-78
2022/08/26 06:13:28;;;;;;;15.60;8.55;;;;;;;20.25;100.00;157607.19;4959139;28;20074;-78
2022/08/26 06:15:55;;;;;;;15.18;8.38;;;;;;;20.28;100.00;157614.94;4970587;28;20456;-79
2022/08/26 06:18:26;;;;;;;18.75;8.98;;;;;;;20.33;100.00;157627.84;4969322;28;20066;-77
2022/08/26 06:20:53;;;;;;;20.15;8.98;;;;;;;20.50;100.00;157670.44;4973204;28;20039;-77
2022/08/26 06:26:04;;;;;;;18.80;9.02;;;;;;;20.63;100.00;157702.75;4962750;28;20027;-78
2022/08/26 06:28:29;;;;;;;13.40;7.55;;;;;;;20.71;100.00;157723.38;4970487;28;20045;-76
2022/08/26 06:30:55;;;;;;;19.17;7.78;;;;;;;20.80;100.00;157746.63;4953854;28;20039;-77
2022/08/26 06:33:22;;;;;;;21.63;7.80;;;;;;;20.94;100.00;157782.72;4928653;28;20026;-78
2022/08/26 06:35:49;;;;;;;17.55;7.97;;;;;;;21.03;100.00;157803.41;4951234;28;20039;-78
2022/08/26 06:38:14;;;;;;;26.50;8.20;;;;;;;21.10;100.00;157821.50;4984519;28;20058;-78
2022/08/26 06:40:52;;;;;;;22.42;8.75;;;;;;;21.14;100.00;157833.09;4980411;28;20054;-78
2022/08/26 06:43:20;;;;;;;22.95;8.07;;;;;;;21.22;100.00;157851.16;4940383;28;20039;-77
2022/08/26 06:45:47;;;;;;;15.98;7.78;;;;;;;21.28;100.00;157867.94;4947350;28;20468;-77
2022/08/26 06:48:14;;;;;;;26.17;8.05;;;;;;;21.40;100.00;157897.66;4952954;28;20045;-78
2022/08/26 06:50:41;;;;;;;18.35;8.02;;;;;;;21.47;100.00;157914.47;4964627;28;20045;-77
2022/08/26 06:53:08;;;;;;;18.30;7.72;;;;;;;21.59;100.00;157945.47;4967879;28;20039;-78
2022/08/26 06:55:42;;;;;;;22.77;8.27;;;;;;;21.67;100.00;157964.84;4952885;28;20501;-77
2022/08/26 06:58:08;;;;;;;22.58;8.20;;;;;;;21.69;100.00;157971.25;4953360;28;20088;-78
2022/08/26 07:00:35;;;;;;;18.35;7.57;;;;;;;21.77;100.00;157991.97;4961858;28;20098;-76
2022/08/26 07:03:03;;;;;;;17.90;8.32;;;;;;;21.96;100.00;158039.75;4959087;28;20072;-77
2022/08/26 07:05:28;;;;;;;20.23;8.57;;;;;;;22.00;100.00;158048.78;4981830;28;20043;-77
2022/08/26 07:07:56;;;;;;;15.82;8.25;;;;;;;22.05;100.00;158061.66;4967330;28;20034;-77
2022/08/26 07:10:21;;;;;;;21.00;8.20;;;;;;;22.06;100.00;158063.00;4966894;28;20423;-77
2022/08/26 07:12:47;;;;;;;19.20;7.80;;;;;;;22.25;100.00;158112.09;4967425;28;20489;-77
2022/08/26 07:15:14;;;;;;;17.85;8.25;;;;;;;22.30;100.00;158123.69;4972183;28;20151;-77
2022/08/26 07:17:39;;;;;;;17.92;8.32;;;;;;;22.43;100.00;158156.00;4965154;28;20042;-77
2022/08/26 07:20:07;;;;;;;16.90;8.45;;;;;;;22.48;100.00;158168.94;4967776;28;20054;-76
2022/08/26 07:22:33;;;;;;;21.92;8.75;;;;;;;22.42;100.00;158154.72;4968562;28;20101;-77
2022/08/26 07:24:59;;;;;;;15.73;7.68;;;;;;;22.42;100.00;158153.44;4968078;28;20031;-77
2022/08/26 07:27:24;;;;;;;19.33;9.07;;;;;;;22.48;100.00;158170.22;4949023;28;20070;-78
2022/08/26 07:29:55;;;;;;;20.88;8.77;;;;;;;22.57;100.00;158190.91;4965743;28;20035;-80
2022/08/26 07:32:20;;;;;;;15.40;7.57;;;;;;;22.81;100.00;158252.91;4966917;28;20034;-78
2022/08/26 07:34:46;;;;;;;18.05;8.50;;;;;;;23.01;100.00;158303.28;4966206;28;20386;-78
2022/08/26 07:37:11;;;;;;;17.90;7.53;;;;;;;23.20;100.00;158351.13;4965536;28;20081;-79
2022/08/26 07:39:37;;;;;;;22.27;8.30;;;;;;;23.43;100.00;158408.00;4949336;28;20441;-78
2022/08/26 07:42:04;;;;;;;18.08;8.23;;;;;;;23.60;100.00;158450.63;4950313;28;20150;-79
2022/08/26 07:44:30;;;;;;;14.63;7.60;;;;;;;23.76;100.00;158490.75;4969865;28;20035;-76
2022/08/26 07:46:55;;;;;;;27.73;8.63;;;;;;;23.83;100.00;158510.16;4964307;28;20047;-78
2022/08/26 07:49:22;;;;;;;13.23;7.13;;;;;;;24.01;100.00;158554.09;4966904;28;20042;-78
2022/08/26 07:51:49;;;;;;;21.85;7.85;;;;;;;24.07;100.00;158570.94;4967557;28;20123;-77
2022/08/26 07:54:15;;;;;;;16.17;7.30;;;;;;;24.15;100.00;158590.31;4951843;28;20097;-77
2022/08/26 07:56:41;;;;;;;15.75;8.05;;;;;;;24.21;100.00;158604.53;4967592;28;20031;-77
2022/08/26 07:59:07;;;;;;;15.25;7.00;;;;;;;24.21;100.00;158605.81;4981549;28;20050;-78
2022/08/26 08:01:33;;;;;;;20.38;6.82;;;;;;;24.25;100.00;158616.16;4965312;28;20038;-76
2022/08/26 08:03:59;;;;;;;13.95;7.28;;;;;;;24.20;100.00;158603.22;4962944;28;20043;-76
2022/08/26 08:06:26;;;;;;;20.33;7.25;;;;;;;24.22;100.00;158608.44;4951386;28;20070;-76
2022/08/26 08:08:51;;;;;;;15.30;6.55;;;;;;;24.27;100.00;158621.31;4984131;28;20070;-77
2022/08/26 08:11:19;;;;;;;19.60;7.30;;;;;;;24.55;99.40;158689.94;4969918;28;20062;-77
2022/08/26 08:13:45;;;;;;;15.48;6.82;;;;;;;24.54;99.98;158687.31;4969887;28;20073;-78
2022/08/26 08:16:11;;;;;;;22.35;6.93;;;;;;;24.70;99.39;158728.72;4957021;28;20041;-76
2022/08/26 08:18:37;;;;;;;19.17;7.05;;;;;;;24.74;99.44;158739.06;4971218;28;20034;-76
2022/08/26 08:21:02;;;;;;;15.63;7.65;;;;;;;24.69;98.47;158726.09;4968242;28;21428;-77
2022/08/26 08:23:30;;;;;;;16.20;6.93;;;;;;;24.85;97.82;158767.50;4956116;28;20158;-77
2022/08/26 08:26:00;;;;;;;23.20;7.53;;;;;;;25.01;98.42;158806.28;4966903;28;20035;-76
2022/08/26 08:28:26;;;;;;;14.30;6.18;;;;;;;25.15;97.02;158842.53;4956495;28;20050;-77
2022/08/26 08:30:51;;;;;;;20.90;7.88;;;;;;;25.23;94.98;158861.97;4942488;28;20030;-77
2022/08/26 08:33:17;;;;;;;23.85;8.57;;;;;;;25.29;93.99;158876.22;4962401;28;20027;-77
2022/08/26 08:35:44;;;;;;;22.20;7.25;;;;;;;25.31;94.53;158882.66;4969881;28;20045;-77
2022/08/26 08:38:10;;;;;;;24.17;7.25;;;;;;;25.49;93.72;158927.94;4969143;28;20122;-78
2022/08/26 08:40:40;;;;;;;17.15;7.15;;;;;;;25.78;91.66;159000.38;4963946;28;20113;-77
2022/08/26 08:43:10;;;;;;;15.13;6.80;;;;;;;25.60;92.14;158956.41;4969209;28;20078;-76
2022/08/26 08:45:40;;;;;;;11.95;5.57;;;;;;;25.38;93.55;158899.50;4964324;28;20459;-78
2022/08/26 08:48:22;;;;;;;13.68;6.75;;;;;;;25.66;91.33;158970.66;4954369;28;20498;-78
2022/08/26 08:51:16;;;;;;;16.77;6.60;;;;;;;25.82;92.65;159010.72;4968709;28;20454;-77
2022/08/26 08:53:46;;;;;;;13.30;6.90;;;;;;;25.84;90.33;159017.22;4955993;28;20871;-75
2022/08/26 08:56:38;;;;;;;19.80;6.72;;;;;;;25.94;89.80;159040.56;4952454;28;20066;-77
2022/08/26 08:59:13;;;;;;;21.50;7.23;;;;;;;25.97;88.17;159049.59;4948603;28;20038;-76
2022/08/26 09:01:51;;;;;;;21.52;7.38;;;;;;;25.78;88.90;159000.38;4968771;28;20034;-78
2022/08/26 09:04:53;;;;;;;18.15;7.10;;;;;;;25.92;88.22;159035.34;4969368;28;20049;-80
2022/08/26 09:07:25;;;;;;;;;;;;;;;26.00;87.70;159056.09;4964870;28;20043;-78
2022/08/26 09:09:58;;;;;;;17.05;7.07;;;;;;;26.13;88.38;159088.44;4970054;28;20013;-78
2022/08/26 09:12:27;;;;;;;15.02;7.13;;;;;;;26.20;87.90;159106.53;4969946;28;20494;-78
2022/08/26 09:15:00;;;;;;;17.25;6.78;;;;;;;26.36;86.26;159146.66;4946222;28;20087;-77
2022/08/26 09:17:53;;;;;;;13.73;7.00;;;;;;;26.46;86.46;159172.53;4967207;28;20623;-78
2022/08/26 09:20:31;;;;;;;12.68;6.78;;;;;;;26.44;85.90;159166.09;4969002;28;20251;-78
2022/08/26 09:22:57;;;;;;;15.63;7.10;;;;;;;26.51;86.62;159185.50;4951122;28;20039;-77
2022/08/26 09:25:23;;;;;;;15.70;6.70;;;;;;;26.55;86.73;159195.84;4933018;28;20050;-77
2022/08/26 09:27:50;;;;;;;15.63;6.63;;;;;;;26.62;85.20;159212.75;4967032;28;20048;-78
2022/08/26 09:30:31;;;;;;;21.33;6.95;;;;;;;26.76;84.08;159247.66;4971706;28;20042;-76
2022/08/26 09:32:58;;;;;;;18.65;6.55;;;;;;;26.80;83.29;159258.00;4973053;28;20148;-77
2022/08/26 09:35:31;;;;;;;14.55;6.68;;;;;;;26.99;82.93;159307.25;4965317;28;20179;-77
2022/08/26 09:37:57;;;;;;;19.55;6.85;;;;;;;27.04;81.80;159317.59;4951884;28;20041;-78
2022/08/26 09:40:33;;;;;;;17.42;7.57;;;;;;;27.16;80.94;159349.97;4965514;28;20034;-77
2022/08/26 09:43:10;;;;;;;12.80;6.40;;;;;;;27.20;80.40;159359.03;4967258;28;20125;-77
2022/08/26 09:45:37;;;;;;;16.50;6.63;;;;;;;27.33;80.29;159392.72;4968202;28;20066;-76
2022/08/26 09:48:03;;;;;;;16.35;6.80;;;;;;;27.46;79.15;159425.06;4967007;28;20039;-78
2022/08/26 09:50:32;;;;;;;13.35;6.53;;;;;;;27.68;78.41;159480.75;4961674;28;20035;-77
2022/08/26 09:53:42;;;;;;;17.48;6.90;;;;;;;27.86;77.74;159524.78;4964108;28;20065;-76
2022/08/26 09:56:16;;;;;;;22.48;7.07;;;;;;;28.25;76.77;159624.56;4946680;28;20668;-77
2022/08/26 09:58:45;;;;;;;15.90;6.57;;;;;;;28.19;75.23;159609.03;4945944;28;20034;-77
2022/08/26 10:01:42;;;;;;;16.30;6.18;;;;;;;27.85;76.15;159523.50;4959289;28;20062;-78
2022/08/26 10:04:24;;;;;;;14.00;6.28;;;;;;;27.88;76.24;159530.00;4975470;28;20034;-78
2022/08/26 10:06:57;;;;;;;20.58;6.57;;;;;;;28.14;74.96;159597.41;4976593;28;20034;-77
2022/08/26 10:09:24;;;;;;;20.50;6.40;;;;;;;27.99;76.15;159557.22;4952714;28;20580;-78
2022/08/26 10:11:58;;;;;;;16.65;6.15;;;;;;;28.08;76.55;159581.81;4951284;28;20112;-78
2022/08/26 10:14:53;;;;;;;19.92;6.70;;;;;;;28.25;76.06;159624.56;4971482;28;20065;-79
2022/08/26 10:17:31;;;;;;;14.68;5.90;;;;;;;28.35;74.79;159649.22;4936435;28;20097;-77
2022/08/26 10:20:21;;;;;;;20.33;6.85;;;;;;;28.32;74.42;159641.44;4968162;28;20041;-80
2022/08/26 10:22:57;;;;;;;16.30;5.93;;;;;;;28.67;73.82;159730.88;4966022;28;20054;-77
2022/08/26 10:25:30;;;;;;;22.67;6.25;;;;;;;28.62;71.88;159717.91;4949413;28;20034;-78
2022/08/26 10:28:16;;;;;;;18.90;6.28;;;;;;;28.54;74.42;159698.47;4964940;28;20115;-78
2022/08/26 10:30:54;;;;;;;16.90;5.97;;;;;;;28.86;71.66;159777.53;4966984;28;20178;-77
2022/08/26 10:33:21;;;;;;;19.98;5.57;;;;;;;29.33;68.33;159895.44;4953519;28;20031;-78
2022/08/26 10:35:53;;;;;;;14.85;5.78;;;;;;;29.84;66.34;160026.41;4967011;28;20030;-76
2022/08/26 10:38:30;;;;;;;16.90;5.72;;;;;;;30.16;64.64;160105.47;4966824;28;20039;-77
2022/08/26 10:41:20;;;;;;;17.20;6.03;;;;;;;30.08;63.83;160087.34;4986143;28;20037;-76
2022/08/26 10:43:53;;;;;;;18.15;5.88;;;;;;;29.61;66.31;159966.72;4985480;28;20097;-77
2022/08/26 10:46:23;;;;;;;16.20;6.07;;;;;;;29.12;68.30;159843.56;4971435;28;20086;-77
2022/08/26 10:48:52;;;;;;;18.38;6.00;;;;;;;28.96;69.02;159803.41;4966930;28;20402;-75
2022/08/26 10:51:30;;;;;;;13.95;5.53;;;;;;;28.60;70.68;159711.44;4966226;28;20035;-75
2022/08/26 10:54:44;;;;;;;18.73;5.90;;;;;;;28.44;72.00;159672.47;4966546;28;20563;-76
2022/08/26 10:57:21;;;;;;;16.45;6.15;;;;;;;28.08;71.67;159580.53;4956470;28;20097;-75
2022/08/26 10:59:55;;;;;;;14.63;6.15;;;;;;;27.93;72.23;159544.31;4951035;28;20051;-75
2022/08/26 11:02:47;;;;;;;24.38;5.93;;;;;;;27.82;72.30;159514.44;4968397;28;20466;-76
2022/08/26 11:05:22;;;;;;;17.70;6.10;;;;;;;27.83;73.27;159517.03;4963859;28;20800;-76
2022/08/26 11:07:55;;;;;;;18.20;5.57;;;;;;;27.86;72.04;159526.09;4969219;28;20054;-77
2022/08/26 11:10:21;;;;;;;21.98;6.20;;;;;;;27.89;72.28;159533.91;4953264;28;20031;-77
2022/08/26 11:12:50;;;;;;;16.67;5.53;;;;;;;28.13;72.67;159593.50;4968835;28;20109;-76
2022/08/26 11:15:19;;;;;;;20.67;5.70;;;;;;;28.22;72.97;159615.50;4985928;28;20073;-77
2022/08/26 11:17:44;;;;;;;23.42;6.63;;;;;;;28.32;72.98;159641.44;4962033;28;20043;-75
2022/08/26 11:20:33;;;;;;;19.23;5.53;;;;;;;28.40;71.40;159662.13;4952673;28;20104;-77
2022/08/26 11:23:25;;;;;;;15.77;5.63;;;;;;;28.82;70.77;159768.44;4964534;28;20035;-76
2022/08/26 11:25:54;;;;;;;24.85;6.10;;;;;;;29.22;68.15;159869.53;4946649;28;20062;-77